Time;durP1;ratioP1;P1;durP2;ratioP2;P2;SDS_P1;SDS_P2;PMS_P1;PMS_P2;Temp;Humidity;BMP_temperature;BMP_pressure;BME280_temperature;BME280_humidity;BME280_pressure;Samples;Min_cycle;Max_cycle;Signal;HPM_P1;HPM_P2
2022/06/26 00:01:33;;;;;;;1.90;1.30;;;19.80;99.90;;;;;;4917665;29;20035;-76
2022/06/26 00:04:02;;;;;;;0.85;0.85;;;19.70;99.90;;;;;;4939816;28;20147;-76
2022/06/26 00:06:31;;;;;;;1.17;1.10;;;19.70;99.90;;;;;;4920481;29;20032;-76
2022/06/26 00:08:58;;;;;;;1.35;0.98;;;19.70;99.90;;;;;;4936984;28;20024;-75
2022/06/26 00:11:24;;;;;;;3.17;1.23;;;19.70;99.90;;;;;;4920989;28;20051;-77
2022/06/26 00:13:50;;;;;;;1.50;1.20;;;19.70;99.90;;;;;;4926589;29;20079;-75
2022/06/26 00:16:19;;;;;;;1.20;1.20;;;19.70;99.90;;;;;;4939508;28;20510;-76
2022/06/26 00:18:44;;;;;;;1.70;1.30;;;19.60;99.90;;;;;;4921159;29;20238;-76
2022/06/26 00:21:12;;;;;;;1.40;1.30;;;19.50;99.90;;;;;;4939694;28;20046;-75
2022/06/26 00:23:40;;;;;;;1.40;1.30;;;19.60;99.90;;;;;;4918170;29;20020;-76
2022/06/26 00:26:05;;;;;;;1.20;1.10;;;19.60;99.90;;;;;;4923511;29;20079;-75
2022/06/26 00:28:33;;;;;;;1.65;1.20;;;19.50;99.90;;;;;;4918896;29;20103;-76
2022/06/26 00:31:01;;;;;;;1.73;1.52;;;19.40;99.90;;;;;;4925578;29;20110;-75
2022/06/26 00:33:31;;;;;;;1.90;1.55;;;19.40;99.90;;;;;;4920958;29;20642;-76
2022/06/26 00:36:01;;;;;;;1.30;1.20;;;19.50;99.90;;;;;;4938233;28;20016;-76
2022/06/26 00:38:31;;;;;;;1.45;1.35;;;19.50;99.90;;;;;;4915806;29;20060;-76
2022/06/26 00:40:56;;;;;;;2.15;1.60;;;19.60;99.90;;;;;;4919533;29;20024;-76
2022/06/26 00:43:27;;;;;;;2.90;1.60;;;19.60;99.90;;;;;;4927679;28;20034;-75
2022/06/26 00:46:06;;;;;;;1.33;1.23;;;19.60;99.90;;;;;;4925540;29;20524;-75
2022/06/26 00:48:36;;;;;;;1.40;1.25;;;19.50;99.90;;;;;;4922455;29;20022;-75
2022/06/26 00:51:03;;;;;;;4.22;1.40;;;19.40;99.90;;;;;;4925965;29;20028;-75
2022/06/26 00:53:33;;;;;;;2.03;1.58;;;19.40;99.90;;;;;;4936483;28;20469;-76
2022/06/26 00:56:13;;;;;;;1.55;1.45;;;19.30;99.90;;;;;;4929586;29;20024;-75
2022/06/26 00:58:40;;;;;;;2.20;1.50;;;19.30;99.90;;;;;;4925152;29;20016;-76
2022/06/26 01:01:07;;;;;;;1.50;1.30;;;19.40;99.90;;;;;;4938842;28;20107;-76
2022/06/26 01:03:34;;;;;;;1.10;1.00;;;19.70;99.90;;;;;;4936878;28;20127;-75
2022/06/26 01:06:07;;;;;;;2.50;1.50;;;19.50;99.90;;;;;;4923913;28;20036;-76
2022/06/26 01:08:39;;;;;;;1.90;1.70;;;19.50;99.90;;;;;;4918507;29;20020;-76
2022/06/26 01:11:17;;;;;;;1.40;1.30;;;19.40;99.90;;;;;;4929809;29;20056;-76
2022/06/26 01:13:55;;;;;;;2.80;2.00;;;19.40;99.90;;;;;;4921192;29;20838;-76
2022/06/26 01:16:24;;;;;;;2.22;1.63;;;19.50;99.90;;;;;;4924676;29;20026;-76
2022/06/26 01:18:52;;;;;;;2.15;1.42;;;19.60;99.90;;;;;;4924760;29;20032;-76
2022/06/26 01:21:21;;;;;;;1.60;1.50;;;19.70;99.90;;;;;;4938276;28;20474;-76
2022/06/26 01:23:48;;;;;;;1.27;1.20;;;19.70;99.90;;;;;;4921600;29;20019;-76
2022/06/26 01:26:22;;;;;;;2.50;1.40;;;19.50;99.90;;;;;;4928937;29;20051;-76
2022/06/26 01:28:48;;;;;;;2.05;1.42;;;19.50;99.90;;;;;;4938131;28;20051;-76
2022/06/26 01:31:18;;;;;;;1.30;1.20;;;19.60;99.90;;;;;;4924859;29;20055;-76
2022/06/26 01:33:47;;;;;;;1.50;1.40;;;19.60;99.90;;;;;;4921251;29;20035;-76
2022/06/26 01:36:14;;;;;;;1.52;1.42;;;19.60;99.90;;;;;;4925796;29;20023;-75
2022/06/26 01:38:45;;;;;;;2.47;1.15;;;19.60;99.90;;;;;;4923590;29;20022;-76
2022/06/26 01:41:12;;;;;;;1.25;1.15;;;19.70;99.90;;;;;;4924402;29;20015;-75
2022/06/26 01:43:42;;;;;;;2.67;1.90;;;19.70;99.90;;;;;;4918827;29;20024;-76
2022/06/26 01:46:08;;;;;;;2.45;1.67;;;19.70;99.90;;;;;;4929026;29;20031;-75
2022/06/26 01:48:46;;;;;;;;;;;19.70;99.90;;;;;;4922069;29;20024;-77
2022/06/26 01:51:17;;;;;;;3.17;1.73;;;19.70;99.90;;;;;;4930008;29;19906;-76
2022/06/26 01:53:44;;;;;;;2.22;1.23;;;19.80;99.90;;;;;;4924602;29;20105;-76
2022/06/26 01:56:10;;;;;;;1.20;1.20;;;19.80;99.90;;;;;;4926235;29;20027;-76
2022/06/26 01:58:41;;;;;;;2.95;1.30;;;19.80;99.90;;;;;;4922336;29;20030;-76
2022/06/26 02:01:08;;;;;;;1.00;1.00;;;19.80;99.90;;;;;;4944054;28;20118;-76
2022/06/26 02:03:35;;;;;;;1.98;1.50;;;19.80;99.90;;;;;;4924904;29;20024;-76
2022/06/26 02:06:01;;;;;;;2.15;1.55;;;19.80;99.90;;;;;;4924257;29;20051;-77
2022/06/26 02:08:27;;;;;;;1.45;1.35;;;19.80;99.90;;;;;;4933862;29;20098;-76
2022/06/26 02:13:44;;;;;;;1.55;1.23;;;19.80;99.90;;;;;;4923021;29;20068;-76
2022/06/26 02:16:18;;;;;;;1.42;1.33;;;19.80;99.90;;;;;;4930330;29;20027;-76
2022/06/26 02:18:53;;;;;;;1.50;1.40;;;19.80;99.90;;;;;;4918824;29;20138;-77
2022/06/26 02:21:28;;;;;;;1.40;1.30;;;19.70;99.90;;;;;;4924454;29;20031;-75
2022/06/26 02:23:57;;;;;;;1.85;1.50;;;19.70;99.90;;;;;;4942909;28;20393;-76
2022/06/26 02:26:24;;;;;;;3.03;1.45;;;19.70;99.90;;;;;;4942161;28;20067;-76
2022/06/26 02:28:52;;;;;;;2.05;1.10;;;19.70;99.90;;;;;;4923485;29;20058;-75
2022/06/26 02:31:18;;;;;;;1.52;1.42;;;19.60;99.90;;;;;;4921044;29;20484;-76
2022/06/26 02:33:49;;;;;;;3.53;2.15;;;19.60;99.90;;;;;;4926789;28;20070;-79
2022/06/26 02:36:20;;;;;;;1.55;1.45;;;19.60;99.90;;;;;;4924248;29;20493;-75
2022/06/26 02:38:49;;;;;;;1.80;1.38;;;19.50;99.90;;;;;;4934132;28;20083;-75
2022/06/26 02:41:20;;;;;;;2.83;2.03;;;19.40;99.90;;;;;;4935466;28;20777;-76
2022/06/26 02:43:46;;;;;;;2.35;1.67;;;19.40;99.90;;;;;;4920232;29;20106;-76
2022/06/26 02:46:22;;;;;;;1.60;1.50;;;19.30;99.90;;;;;;4925623;29;20139;-76
2022/06/26 02:48:48;;;;;;;1.70;1.60;;;19.30;99.90;;;;;;4920011;29;20036;-76
2022/06/26 02:51:14;;;;;;;2.17;1.45;;;19.20;99.90;;;;;;4925306;28;20031;-75
2022/06/26 02:53:42;;;;;;;2.17;1.92;;;19.20;99.90;;;;;;4938806;28;20034;-76
2022/06/26 02:56:07;;;;;;;3.97;1.70;;;19.20;99.90;;;;;;4926870;29;20035;-75
2022/06/26 02:58:33;;;;;;;2.33;1.70;;;19.20;99.90;;;;;;4917755;29;20039;-76
2022/06/26 03:01:00;;;;;;;2.78;2.13;;;19.10;99.90;;;;;;4924059;29;20028;-76
2022/06/26 03:03:25;;;;;;;1.90;1.60;;;19.10;99.90;;;;;;4924632;28;20028;-76
2022/06/26 03:05:55;;;;;;;3.50;2.33;;;19.20;99.90;;;;;;4918402;29;21446;-75
2022/06/26 03:08:22;;;;;;;2.22;1.90;;;19.10;99.90;;;;;;4939760;28;20733;-76
2022/06/26 03:10:50;;;;;;;3.17;1.92;;;19.10;99.90;;;;;;4932674;28;20174;-76
2022/06/26 03:13:19;;;;;;;1.60;1.50;;;19.10;99.90;;;;;;4928949;28;20019;-75
2022/06/26 03:15:45;;;;;;;3.88;2.00;;;19.10;99.90;;;;;;4919648;29;20020;-76
2022/06/26 03:18:13;;;;;;;4.32;2.20;;;19.10;99.90;;;;;;4939418;28;20035;-76
2022/06/26 03:20:41;;;;;;;2.80;2.28;;;19.00;99.90;;;;;;4933708;28;20024;-76
2022/06/26 03:23:08;;;;;;;2.90;1.88;;;19.10;99.90;;;;;;4928029;29;20028;-76
2022/06/26 03:25:34;;;;;;;2.40;1.75;;;19.10;99.90;;;;;;4917195;29;20083;-76
2022/06/26 03:28:02;;;;;;;1.95;1.70;;;19.10;99.90;;;;;;4923442;29;20024;-76
2022/06/26 03:30:28;;;;;;;4.13;1.90;;;19.10;99.90;;;;;;4923501;29;20048;-76
2022/06/26 03:33:03;;;;;;;3.17;1.80;;;19.10;99.90;;;;;;4925964;29;20038;-76
2022/06/26 03:35:28;;;;;;;6.32;2.10;;;19.10;99.90;;;;;;4922327;28;20075;-77
2022/06/26 03:37:56;;;;;;;1.73;1.63;;;19.10;99.90;;;;;;4922055;28;20552;-76
2022/06/26 03:40:24;;;;;;;2.10;2.00;;;19.20;99.90;;;;;;4923507;29;20473;-76
2022/06/26 03:42:49;;;;;;;2.20;2.00;;;19.20;99.90;;;;;;4920904;29;20028;-75
2022/06/26 03:45:16;;;;;;;2.15;1.95;;;19.20;99.90;;;;;;4929377;29;20760;-76
2022/06/26 03:47:49;;;;;;;1.80;1.70;;;19.20;99.90;;;;;;4934973;28;20030;-76
2022/06/26 03:50:14;;;;;;;1.92;1.80;;;19.30;99.90;;;;;;4935928;28;20461;-75
2022/06/26 03:52:42;;;;;;;2.38;2.15;;;19.30;99.90;;;;;;4918267;29;20038;-77
2022/06/26 03:55:13;;;;;;;4.53;2.55;;;19.40;99.90;;;;;;4926264;29;20054;-76
2022/06/26 03:57:52;;;;;;;3.17;2.22;;;19.50;99.90;;;;;;4916700;29;20036;-76
2022/06/26 04:00:17;;;;;;;2.40;2.20;;;19.60;99.90;;;;;;4924273;29;20020;-76
2022/06/26 04:02:47;;;;;;;1.92;1.80;;;19.50;99.90;;;;;;4920506;29;20035;-76
2022/06/26 04:05:13;;;;;;;3.13;2.63;;;19.40;99.90;;;;;;4925492;28;20686;-75
2022/06/26 04:07:40;;;;;;;3.05;1.77;;;19.50;99.90;;;;;;4920417;29;20086;-76
2022/06/26 04:10:08;;;;;;;3.13;2.10;;;19.60;99.90;;;;;;4920779;29;20106;-76
2022/06/26 04:12:45;;;;;;;2.70;1.77;;;19.70;99.90;;;;;;4923834;29;20024;-76
2022/06/26 04:15:12;;;;;;;2.25;1.50;;;19.80;99.90;;;;;;4928201;29;20103;-76
2022/06/26 04:17:42;;;;;;;2.70;2.17;;;19.80;99.90;;;;;;4940567;28;20059;-76
2022/06/26 04:20:12;;;;;;;1.77;1.67;;;19.90;99.90;;;;;;4925967;29;20031;-76
2022/06/26 04:22:38;;;;;;;3.28;2.00;;;20.00;99.90;;;;;;4928219;29;20034;-76
2022/06/26 04:25:18;;;;;;;2.30;2.08;;;20.10;99.90;;;;;;4943602;28;20020;-76
2022/06/26 04:27:45;;;;;;;4.20;2.13;;;20.20;99.90;;;;;;4923993;29;20031;-76
2022/06/26 04:30:11;;;;;;;3.60;2.33;;;20.20;99.90;;;;;;4929011;29;20032;-76
2022/06/26 04:32:43;;;;;;;3.28;2.50;;;20.20;99.90;;;;;;4923171;29;20097;-77
2022/06/26 04:35:09;;;;;;;2.17;2.00;;;20.20;99.90;;;;;;4925874;29;20039;-75
2022/06/26 04:37:40;;;;;;;3.15;1.85;;;20.20;99.90;;;;;;4939686;28;20381;-76
2022/06/26 04:40:09;;;;;;;2.88;2.00;;;20.20;99.90;;;;;;4943302;28;20370;-76
2022/06/26 04:42:35;;;;;;;8.25;2.20;;;20.20;99.90;;;;;;4926433;29;20052;-75
2022/06/26 04:45:03;;;;;;;;;;;20.20;99.90;;;;;;4926286;29;20102;-76
2022/06/26 04:47:39;;;;;;;1.90;1.80;;;20.20;99.90;;;;;;4929598;29;19915;-76
2022/06/26 04:50:05;;;;;;;3.50;2.50;;;20.40;99.90;;;;;;4942825;28;20028;-75
2022/06/26 04:52:31;;;;;;;2.55;2.35;;;20.50;99.90;;;;;;4927514;29;20024;-76
2022/06/26 04:55:05;;;;;;;3.17;2.50;;;20.70;99.90;;;;;;4940601;28;20044;-76
2022/06/26 04:57:31;;;;;;;2.50;2.28;;;20.80;99.90;;;;;;4925060;29;20446;-75
2022/06/26 05:00:01;;;;;;;2.28;2.08;;;21.10;99.90;;;;;;4923897;29;20110;-76
2022/06/26 05:02:27;;;;;;;2.83;2.40;;;21.30;99.90;;;;;;4926183;29;20036;-76
2022/06/26 05:04:56;;;;;;;2.75;2.20;;;21.30;99.90;;;;;;4921726;29;20103;-76
2022/06/26 05:07:22;;;;;;;2.40;2.20;;;21.30;99.90;;;;;;4941841;28;20034;-75
2022/06/26 05:09:50;;;;;;;2.42;2.22;;;21.40;99.90;;;;;;4921985;29;20035;-76
2022/06/26 05:12:18;;;;;;;3.22;2.08;;;21.70;99.90;;;;;;4925838;29;20500;-75
2022/06/26 05:14:47;;;;;;;2.10;1.80;;;21.70;99.90;;;;;;4923706;28;20510;-75
2022/06/26 05:17:13;;;;;;;2.33;2.00;;;21.80;99.90;;;;;;4922114;29;20027;-77
2022/06/26 05:19:41;;;;;;;1.90;1.67;;;21.80;99.90;;;;;;4925742;29;20122;-76
2022/06/26 05:22:08;;;;;;;2.05;1.85;;;21.80;99.90;;;;;;4927367;29;21427;-75
2022/06/26 05:24:36;;;;;;;3.90;1.88;;;21.80;99.90;;;;;;4925597;29;20020;-75
2022/06/26 05:27:04;;;;;;;2.25;2.00;;;21.90;99.90;;;;;;4924752;29;20346;-75
2022/06/26 05:29:33;;;;;;;2.38;1.85;;;21.90;99.90;;;;;;4926010;29;20115;-75
2022/06/26 05:32:01;;;;;;;2.33;2.00;;;22.00;99.90;;;;;;4923745;29;20036;-76
2022/06/26 05:34:32;;;;;;;2.30;2.10;;;22.20;99.90;;;;;;4928821;28;20162;-75
2022/06/26 05:37:00;;;;;;;2.60;1.70;;;22.50;99.90;;;;;;4922469;29;20688;-75
2022/06/26 05:39:31;;;;;;;2.70;1.80;;;22.90;99.90;;;;;;4925502;29;20083;-75
2022/06/26 05:41:58;;;;;;;2.00;1.80;;;23.30;99.90;;;;;;4919851;29;20103;-75
2022/06/26 05:44:24;;;;;;;1.75;1.65;;;23.70;99.90;;;;;;4930240;29;20575;-75
2022/06/26 05:46:55;;;;;;;3.30;1.80;;;23.70;99.90;;;;;;4937981;28;20023;-76
2022/06/26 05:49:26;;;;;;;2.30;2.10;;;24.10;99.90;;;;;;4925631;28;20023;-76
2022/06/26 05:51:52;;;;;;;2.50;2.00;;;24.90;99.80;;;;;;4938262;28;20027;-75
2022/06/26 05:54:23;;;;;;;1.90;1.70;;;26.20;97.90;;;;;;4924515;29;20094;-76
2022/06/26 05:56:54;;;;;;;2.15;1.80;;;26.90;95.60;;;;;;4918152;29;20107;-76
2022/06/26 05:59:21;;;;;;;2.00;1.90;;;26.40;94.60;;;;;;4928782;28;20070;-75
2022/06/26 06:01:46;;;;;;;2.35;2.15;;;26.10;94.50;;;;;;4924088;28;20693;-76
2022/06/26 06:04:12;;;;;;;3.33;2.47;;;25.60;95.60;;;;;;4928554;29;20023;-76
2022/06/26 06:06:37;;;;;;;4.38;2.40;;;25.80;95.50;;;;;;4921879;29;20480;-72
2022/06/26 06:09:03;;;;;;;2.95;2.00;;;26.20;94.70;;;;;;4920360;29;20023;-73
2022/06/26 06:11:29;;;;;;;2.03;1.77;;;26.40;94.30;;;;;;4940268;28;20027;-71
2022/06/26 06:13:55;;;;;;;2.40;2.20;;;26.50;93.90;;;;;;4917958;29;20031;-70
2022/06/26 06:16:20;;;;;;;;;;;25.50;94.20;;;;;;4936554;28;20454;-71
2022/06/26 06:18:56;;;;;;;3.20;2.53;;;25.30;95.60;;;;;;4920594;29;19921;-80
2022/06/26 06:21:22;;;;;;;2.13;2.03;;;24.90;95.60;;;;;;4923753;28;20098;-77
2022/06/26 06:23:48;;;;;;;;;;;25.90;95.30;;;;;;4918555;29;20548;-80
2022/06/26 06:26:15;;;;;;;2.63;2.42;;;26.00;94.20;;;;;;4926739;29;20352;-79
2022/06/26 06:28:44;;;;;;;3.53;2.55;;;26.00;94.80;;;;;;4925026;29;20026;-79
2022/06/26 06:31:11;;;;;;;2.50;2.30;;;26.30;94.20;;;;;;4931624;29;20040;-78
2022/06/26 06:33:36;;;;;;;2.63;1.95;;;26.80;93.60;;;;;;4946954;28;20854;-78
2022/06/26 06:36:14;;;;;;;;;;;27.40;93.00;;;;;;4921167;29;20098;-79
2022/06/26 06:38:42;;;;;;;2.20;2.00;;;28.30;91.80;;;;;;4923164;29;20009;-82
2022/06/26 06:41:10;;;;;;;2.85;2.40;;;29.00;90.00;;;;;;4929242;29;20114;-79
2022/06/26 06:43:38;;;;;;;3.25;2.20;;;29.30;88.50;;;;;;4923961;29;20024;-79
2022/06/26 06:46:04;;;;;;;2.17;1.98;;;29.70;87.20;;;;;;4927377;29;20074;-78
2022/06/26 06:48:31;;;;;;;2.13;1.92;;;29.60;86.50;;;;;;4926047;29;20034;-80
2022/06/26 06:50:57;;;;;;;2.60;2.10;;;30.20;85.60;;;;;;4919250;29;20532;-79
2022/06/26 06:53:35;;;;;;;2.47;2.00;;;31.50;81.50;;;;;;4935855;28;20035;-79
2022/06/26 06:56:01;;;;;;;2.03;1.92;;;30.00;81.10;;;;;;4938681;28;20027;-79
2022/06/26 06:58:27;;;;;;;2.85;2.00;;;29.30;85.10;;;;;;4921710;29;20094;-80
2022/06/26 07:00:54;;;;;;;4.50;2.15;;;29.10;83.80;;;;;;4927617;29;20836;-79
2022/06/26 07:03:21;;;;;;;3.03;2.50;;;29.70;83.40;;;;;;4922663;29;20047;-79
2022/06/26 07:05:49;;;;;;;2.60;2.35;;;29.50;83.50;;;;;;4923954;29;20506;-78
2022/06/26 07:08:18;;;;;;;3.70;2.35;;;30.50;81.00;;;;;;4919081;28;20036;-79
2022/06/26 07:10:48;;;;;;;2.47;2.00;;;29.90;80.80;;;;;;4922711;29;20370;-76
2022/06/26 07:13:21;;;;;;;3.03;2.08;;;30.60;79.90;;;;;;4923073;29;20082;-76
2022/06/26 07:15:49;;;;;;;1.95;1.85;;;32.50;75.80;;;;;;4924997;29;20031;-76
2022/06/26 07:18:14;;;;;;;2.30;2.10;;;33.20;73.40;;;;;;4920902;29;20154;-76
2022/06/26 07:20:41;;;;;;;2.00;1.90;;;31.80;73.20;;;;;;4928841;29;20537;-76
2022/06/26 07:23:07;;;;;;;2.45;2.25;;;30.10;75.00;;;;;;4921315;29;20028;-76
2022/06/26 07:25:33;;;;;;;2.40;1.92;;;29.90;77.20;;;;;;4935840;28;20083;-75
2022/06/26 07:28:02;;;;;;;2.47;2.00;;;29.90;77.60;;;;;;4924346;28;20034;-76
2022/06/26 07:30:29;;;;;;;2.05;1.88;;;31.20;76.40;;;;;;4922827;29;20032;-75
2022/06/26 07:35:58;;;;;;;2.50;2.10;;;34.90;67.30;;;;;;4924710;29;20035;-78
2022/06/26 07:38:24;;;;;;;2.55;1.85;;;34.10;66.70;;;;;;4923120;29;20023;-78
2022/06/26 07:40:52;;;;;;;2.08;1.80;;;33.60;69.00;;;;;;4922038;29;20031;-78
2022/06/26 07:43:19;;;;;;;2.33;1.95;;;33.10;66.60;;;;;;4935382;28;20026;-78
2022/06/26 07:45:48;;;;;;;1.63;1.50;;;32.10;67.70;;;;;;4924637;29;20027;-76
2022/06/26 07:48:14;;;;;;;2.25;1.92;;;33.30;67.50;;;;;;4919932;29;20047;-76
2022/06/26 07:50:49;;;;;;;2.00;1.90;;;33.50;66.50;;;;;;4925105;29;20784;-76
2022/06/26 07:53:16;;;;;;;1.95;1.85;;;33.40;66.20;;;;;;4920083;29;20027;-78
2022/06/26 07:55:46;;;;;;;2.00;1.90;;;32.60;67.30;;;;;;4944820;28;20039;-76
2022/06/26 07:58:17;;;;;;;2.28;2.08;;;33.80;65.70;;;;;;4923589;29;20042;-77
2022/06/26 08:00:42;;;;;;;2.38;2.17;;;31.90;67.10;;;;;;4931196;29;20062;-76
2022/06/26 08:03:14;;;;;;;1.90;1.75;;;32.50;67.70;;;;;;4943241;28;20058;-76
2022/06/26 08:05:41;;;;;;;2.63;2.40;;;32.90;67.40;;;;;;4927990;29;20464;-78
2022/06/26 08:08:10;;;;;;;2.60;2.22;;;32.30;67.30;;;;;;4926214;29;20764;-75
2022/06/26 08:10:38;;;;;;;1.98;1.88;;;31.60;68.20;;;;;;4936732;28;20026;-78
2022/06/26 08:13:06;;;;;;;2.42;2.22;;;32.10;67.20;;;;;;4945993;28;20031;-78
2022/06/26 08:15:38;;;;;;;2.33;2.00;;;32.70;65.40;;;;;;4923109;29;20373;-78
2022/06/26 08:18:11;;;;;;;2.20;2.00;;;34.10;65.20;;;;;;4928410;29;20362;-76
2022/06/26 08:20:37;;;;;;;2.50;2.30;;;33.60;64.50;;;;;;4924788;29;20153;-77
2022/06/26 08:23:02;;;;;;;2.03;1.83;;;31.50;66.40;;;;;;4926707;29;20111;-76
2022/06/26 08:25:31;;;;;;;3.53;2.17;;;32.30;67.90;;;;;;4923452;29;20023;-76
2022/06/26 08:28:01;;;;;;;2.85;2.00;;;34.00;65.50;;;;;;4924129;29;20032;-76
2022/06/26 08:30:27;;;;;;;2.03;1.92;;;33.80;64.00;;;;;;4926312;29;20024;-76
2022/06/26 08:33:01;;;;;;;2.10;1.98;;;35.10;61.40;;;;;;4922642;29;20063;-76
2022/06/26 08:35:27;;;;;;;2.45;2.20;;;35.10;61.80;;;;;;4931240;29;20031;-76
2022/06/26 08:37:55;;;;;;;2.65;1.98;;;34.70;60.80;;;;;;4922661;29;20027;-71
2022/06/26 08:40:21;;;;;;;2.35;2.13;;;34.40;62.40;;;;;;4937154;28;20461;-71
2022/06/26 08:42:52;;;;;;;2.53;2.33;;;35.60;60.60;;;;;;4923273;29;20070;-71
2022/06/26 08:45:21;;;;;;;3.58;2.30;;;35.80;59.70;;;;;;4937802;28;20034;-71
2022/06/26 08:47:50;;;;;;;2.17;1.98;;;34.40;60.90;;;;;;4919682;29;20027;-72
2022/06/26 08:50:20;;;;;;;2.33;2.20;;;33.30;62.70;;;;;;4924163;29;20023;-71
2022/06/26 08:52:46;;;;;;;2.30;2.10;;;33.20;63.30;;;;;;4917690;29;20024;-71
2022/06/26 08:55:13;;;;;;;2.33;2.13;;;33.40;63.50;;;;;;4922735;29;20059;-71
2022/06/26 08:57:39;;;;;;;2.28;2.17;;;33.10;64.20;;;;;;4923875;29;20059;-70
2022/06/26 09:00:05;;;;;;;2.60;2.40;;;33.50;63.80;;;;;;4919621;29;20840;-70
2022/06/26 09:02:31;;;;;;;2.13;2.00;;;34.00;62.40;;;;;;4922060;29;20046;-70
2022/06/26 09:04:57;;;;;;;2.85;2.30;;;32.90;64.20;;;;;;4926399;29;20109;-71
2022/06/26 09:07:23;;;;;;;2.30;2.10;;;33.60;63.80;;;;;;4920474;28;20047;-71
2022/06/26 09:09:48;;;;;;;2.33;2.08;;;35.30;61.60;;;;;;4941259;28;20055;-71
2022/06/26 09:12:14;;;;;;;1.83;1.73;;;36.80;58.90;;;;;;4924260;29;20385;-71
2022/06/26 09:14:40;;;;;;;2.25;1.98;;;38.10;56.10;;;;;;4941006;28;20059;-71
2022/06/26 09:17:05;;;;;;;3.70;1.92;;;38.80;55.20;;;;;;4926396;29;20440;-71
2022/06/26 09:19:33;;;;;;;3.42;1.92;;;40.20;53.00;;;;;;4924287;29;20040;-71
2022/06/26 09:22:15;;;;;;;2.92;2.00;;;40.50;52.00;;;;;;4923677;29;20103;-71
2022/06/26 09:24:56;;;;;;;2.50;2.30;;;41.30;51.40;;;;;;4921549;29;20027;-71
2022/06/26 09:27:23;;;;;;;3.05;1.95;;;41.30;50.30;;;;;;4921674;29;20027;-71
2022/06/26 09:29:53;;;;;;;2.65;1.98;;;39.10;52.10;;;;;;4923583;29;20024;-71
2022/06/26 09:32:21;;;;;;;2.22;2.03;;;36.40;55.30;;;;;;4931168;28;20031;-71
2022/06/26 09:34:49;;;;;;;2.60;2.40;;;36.70;55.80;;;;;;4927445;28;20381;-71
2022/06/26 09:37:16;;;;;;;2.28;2.10;;;37.00;54.50;;;;;;4918857;29;20492;-71
2022/06/26 09:39:42;;;;;;;2.80;2.05;;;36.40;54.40;;;;;;4922260;29;20015;-71
2022/06/26 09:42:19;;;;;;;2.40;2.20;;;36.70;55.50;;;;;;4923683;29;20496;-71
2022/06/26 09:44:47;;;;;;;2.40;2.20;;;37.20;54.40;;;;;;4937044;28;20034;-71
2022/06/26 09:47:42;;;;;;;2.50;2.30;;;37.90;54.30;;;;;;4938450;28;20421;-71
2022/06/26 09:50:08;;;;;;;2.67;1.85;;;34.30;56.60;;;;;;4916871;29;20110;-71
2022/06/26 09:52:35;;;;;;;2.25;2.00;;;36.40;55.80;;;;;;4923665;29;20031;-71
2022/06/26 09:55:02;;;;;;;2.40;2.20;;;37.90;55.10;;;;;;4925546;29;20032;-71
2022/06/26 09:57:28;;;;;;;2.50;2.30;;;35.20;55.30;;;;;;4919488;29;20050;-70
2022/06/26 09:59:55;;;;;;;6.45;2.35;;;32.90;59.00;;;;;;4920500;29;20035;-71
2022/06/26 10:07:54;;;;;;;2.15;2.05;;;31.20;63.30;;;;;;4920433;28;20046;-71
2022/06/26 10:10:22;;;;;;;2.33;2.22;;;31.90;63.00;;;;;;4917080;29;20035;-71
2022/06/26 10:12:54;;;;;;;3.25;2.10;;;32.60;62.10;;;;;;4924450;29;20384;-71
2022/06/26 10:15:23;;;;;;;2.65;2.10;;;33.80;60.60;;;;;;4915561;29;20069;-71
2022/06/26 10:18:02;;;;;;;3.55;1.98;;;36.70;58.10;;;;;;4938338;28;20039;-71
2022/06/26 10:20:30;;;;;;;2.03;1.92;;;38.50;54.40;;;;;;4921358;29;20034;-71
2022/06/26 10:22:56;;;;;;;2.17;2.00;;;40.60;52.20;;;;;;4923375;29;20473;-72
2022/06/26 10:25:24;;;;;;;2.42;2.10;;;42.10;50.20;;;;;;4918783;29;20042;-71
2022/06/26 10:27:50;;;;;;;2.20;2.08;;;41.40;50.00;;;;;;4934337;28;20050;-71
2022/06/26 10:30:18;;;;;;;4.78;2.45;;;38.80;51.30;;;;;;4921968;28;20028;-71
2022/06/26 10:32:44;;;;;;;2.75;2.20;;;36.90;54.10;;;;;;4914565;29;20109;-71
2022/06/26 10:35:12;;;;;;;2.00;1.80;;;36.30;54.40;;;;;;4920745;29;20031;-71
2022/06/26 10:37:46;;;;;;;1.98;1.88;;;38.10;53.80;;;;;;4934903;28;20098;-73
2022/06/26 10:42:52;;;;;;;1.75;1.65;;;38.80;51.90;;;;;;4920374;29;20027;-73
2022/06/26 10:43:00;;;;;;;2.35;2.13;;;38.30;52.40;;;;;;4924915;29;20781;-71
2022/06/26 10:45:32;;;;;;;5.43;2.03;;;37.90;52.90;;;;;;4935429;28;20031;-71
2022/06/26 10:48:00;;;;;;;2.05;1.95;;;37.00;53.90;;;;;;4923828;29;20020;-71
2022/06/26 10:50:41;;;;;;;3.65;2.45;;;35.90;55.30;;;;;;4918539;28;20230;-71
2022/06/26 10:53:26;;;;;;;2.70;2.42;;;33.20;57.80;;;;;;4922275;29;20075;-70
2022/06/26 10:56:00;;;;;;;3.13;2.20;;;31.40;62.10;;;;;;4922940;29;20069;-73
2022/06/26 10:58:41;;;;;;;2.58;2.38;;;31.90;63.10;;;;;;4932828;28;20082;-73
2022/06/26 11:01:09;;;;;;;2.28;2.08;;;33.40;60.60;;;;;;4937879;28;20249;-73
2022/06/26 11:03:35;;;;;;;2.22;2.05;;;33.60;59.30;;;;;;4919918;29;20692;-74
2022/06/26 11:06:07;;;;;;;2.67;2.40;;;33.40;59.80;;;;;;4938052;28;20023;-75
2022/06/26 11:08:35;;;;;;;2.83;2.60;;;31.60;61.30;;;;;;4922690;29;20020;-75
2022/06/26 11:11:15;;;;;;;3.53;2.58;;;31.00;63.30;;;;;;4926593;29;20035;-72
2022/06/26 11:13:55;;;;;;;2.35;2.13;;;31.00;64.70;;;;;;4919495;29;20358;-73
2022/06/26 11:16:31;;;;;;;3.05;2.65;;;31.40;63.30;;;;;;4921828;29;20024;-73
2022/06/26 11:18:58;;;;;;;2.88;2.20;;;30.90;63.10;;;;;;4927930;29;20123;-76
2022/06/26 11:21:24;;;;;;;2.05;1.95;;;30.20;64.40;;;;;;4932881;28;20504;-75
2022/06/26 11:23:51;;;;;;;2.20;2.10;;;29.80;65.40;;;;;;4920523;29;20024;-75
2022/06/26 11:26:20;;;;;;;2.22;2.13;;;30.10;65.60;;;;;;4924609;28;20058;-72
2022/06/26 11:28:58;;;;;;;1.92;1.83;;;30.80;64.90;;;;;;4920433;29;20034;-73
2022/06/26 11:31:26;;;;;;;2.40;2.20;;;30.60;63.20;;;;;;4919291;29;20083;-73
2022/06/26 11:33:52;;;;;;;2.30;2.20;;;31.10;62.80;;;;;;4924831;29;20698;-75
2022/06/26 11:36:22;;;;;;;2.40;2.20;;;31.40;62.40;;;;;;4924247;28;20094;-73
2022/06/26 11:38:55;;;;;;;2.42;2.22;;;31.10;63.20;;;;;;4919655;28;20031;-75
2022/06/26 11:41:23;;;;;;;2.63;2.33;;;31.20;63.50;;;;;;4924492;29;20031;-75
2022/06/26 11:43:54;;;;;;;6.93;2.80;;;31.20;63.10;;;;;;4924487;28;20028;-72
2022/06/26 11:46:21;;;;;;;2.47;2.28;;;30.60;64.70;;;;;;4923700;28;20034;-72
2022/06/26 11:48:54;;;;;;;2.80;2.60;;;30.60;65.60;;;;;;4922935;28;20857;-75
2022/06/26 11:51:22;;;;;;;2.20;2.10;;;30.30;65.30;;;;;;4921928;29;20071;-75
2022/06/26 11:53:50;;;;;;;2.35;2.15;;;30.10;64.90;;;;;;4920357;29;20833;-74
2022/06/26 11:56:26;;;;;;;2.45;2.25;;;30.30;64.90;;;;;;4938587;28;20024;-75
2022/06/26 11:58:55;;;;;;;2.45;2.10;;;30.30;65.50;;;;;;4920735;29;20138;-75
2022/06/26 12:01:29;;;;;;;2.35;2.08;;;30.30;65.10;;;;;;4927073;28;20032;-74
2022/06/26 12:03:56;;;;;;;2.55;2.20;;;30.70;65.00;;;;;;4925245;29;20035;-75
2022/06/26 12:06:41;;;;;;;2.00;1.90;;;30.90;64.20;;;;;;4924220;28;20078;-73
2022/06/26 12:09:28;;;;;;;2.63;1.80;;;31.20;63.40;;;;;;4924666;29;20024;-73
2022/06/26 12:11:55;;;;;;;2.60;2.17;;;31.10;63.90;;;;;;4920860;28;20039;-75
2022/06/26 12:14:25;;;;;;;2.35;2.20;;;31.40;62.40;;;;;;4922214;29;20020;-75
2022/06/26 12:16:54;;;;;;;2.30;2.10;;;31.50;63.70;;;;;;4923519;29;20102;-75
2022/06/26 12:19:21;;;;;;;3.42;2.25;;;31.70;63.80;;;;;;4927394;29;20444;-75
2022/06/26 12:21:48;;;;;;;2.17;1.98;;;32.20;63.40;;;;;;4917623;28;20687;-74
2022/06/26 12:24:15;;;;;;;2.03;1.92;;;32.40;61.80;;;;;;4922938;29;20102;-75
2022/06/26 12:26:41;;;;;;;2.00;1.90;;;31.60;61.70;;;;;;4920457;29;20034;-74
2022/06/26 12:29:13;;;;;;;3.03;2.22;;;31.30;62.80;;;;;;4938488;28;20035;-75
2022/06/26 12:31:39;;;;;;;2.33;2.13;;;31.10;62.70;;;;;;4917148;29;20056;-75
2022/06/26 12:34:06;;;;;;;2.15;1.75;;;30.80;63.60;;;;;;4923660;29;20028;-75
2022/06/26 12:36:37;;;;;;;2.80;2.20;;;31.00;63.00;;;;;;4935049;28;20034;-74
2022/06/26 12:39:06;;;;;;;2.35;2.05;;;30.60;63.50;;;;;;4922993;29;20358;-75
2022/06/26 12:41:32;;;;;;;2.75;2.10;;;30.40;64.10;;;;;;4935682;28;20065;-75
2022/06/26 12:44:02;;;;;;;2.75;2.10;;;30.20;65.00;;;;;;4943583;28;20086;-75
2022/06/26 12:46:30;;;;;;;2.28;2.08;;;30.20;64.40;;;;;;4926708;28;20051;-75
2022/06/26 12:54:53;;;;;;;2.28;2.00;;;31.40;63.40;;;;;;4917980;29;20516;-73
2022/06/26 12:57:20;;;;;;;2.42;2.22;;;30.70;63.70;;;;;;4923184;29;20024;-73
2022/06/26 12:59:48;;;;;;;2.40;2.20;;;30.50;64.20;;;;;;4928192;29;20082;-73
2022/06/26 13:02:15;;;;;;;5.07;2.38;;;30.50;64.00;;;;;;4928534;29;20020;-73
2022/06/26 13:04:43;;;;;;;2.40;2.20;;;30.40;62.70;;;;;;4927755;29;20078;-74
2022/06/26 13:07:09;;;;;;;2.25;2.05;;;30.40;64.00;;;;;;4920748;29;20534;-75
2022/06/26 13:09:34;;;;;;;3.30;2.30;;;30.60;62.80;;;;;;4927235;28;20040;-75
2022/06/26 13:12:00;;;;;;;2.17;2.00;;;30.50;62.00;;;;;;4922212;29;20540;-75
2022/06/26 13:14:26;;;;;;;2.10;2.00;;;30.50;63.40;;;;;;4923266;29;20034;-75